sensor_id;sensor_type;location;lat;lon;timestamp;pressure;altitude;pressure_sealevel;temperature;humidity
40574;BME280;26283;49.020;8.644;2023-02-11T00:00:23;101346.38;;;7.09;53.17
40574;BME280;26283;49.020;8.644;2023-02-11T00:02:49;101355.41;;;7.08;53.19
40574;BME280;26283;49.020;8.644;2023-02-11T00:05:14;101356.25;;;7.09;53.20
40574;BME280;26283;49.020;8.644;2023-02-11T00:07:40;101350.03;;;7.08;53.24
40574;BME280;26283;49.020;8.644;2023-02-11T00:10:05;101344.81;;;7.07;53.24
40574;BME280;26283;49.020;8.644;2023-02-11T00:12:35;101352.84;;;7.07;53.28
40574;BME280;26283;49.020;8.644;2023-02-11T00:15:00;101339.44;;;7.07;53.28
40574;BME280;26283;49.020;8.644;2023-02-11T00:17:26;101346.66;;;7.06;53.28
40574;BME280;26283;49.020;8.644;2023-02-11T00:19:52;101344.09;;;7.05;53.30
40574;BME280;26283;49.020;8.644;2023-02-11T00:22:17;101344.09;;;7.05;53.22
40574;BME280;26283;49.020;8.644;2023-02-11T00:24:43;101343.25;;;7.04;53.30
40574;BME280;26283;49.020;8.644;2023-02-11T00:27:11;101354.97;;;7.03;53.27
40574;BME280;26283;49.020;8.644;2023-02-11T00:29:37;101359.34;;;7.04;53.29
40574;BME280;26283;49.020;8.644;2023-02-11T00:32:04;101350.47;;;7.04;53.29
40574;BME280;26283;49.020;8.644;2023-02-11T00:34:32;101355.13;;;7.02;53.31
40574;BME280;26283;49.020;8.644;2023-02-11T00:36:58;101366.69;;;7.02;53.31
40574;BME280;26283;49.020;8.644;2023-02-11T00:39:23;101359.63;;;7.01;53.29
40574;BME280;26283;49.020;8.644;2023-02-11T00:41:49;101353.44;;;7.01;53.28
40574;BME280;26283;49.020;8.644;2023-02-11T00:44:14;101360.62;;;7.00;53.32
40574;BME280;26283;49.020;8.644;2023-02-11T00:46:40;101347.34;;;6.99;53.28
40574;BME280;26283;49.020;8.644;2023-02-11T00:49:05;101344.81;;;6.97;53.32
40574;BME280;26283;49.020;8.644;2023-02-11T00:51:30;101344.81;;;6.97;53.27
40574;BME280;26283;49.020;8.644;2023-02-11T00:53:56;101343.84;;;6.98;53.33
40574;BME280;26283;49.020;8.644;2023-02-11T00:56:21;101335.94;;;6.97;53.39
40574;BME280;26283;49.020;8.644;2023-02-11T00:58:47;101330.56;;;6.97;53.39
40574;BME280;26283;49.020;8.644;2023-02-11T01:01:12;101343.13;;;6.96;53.38
40574;BME280;26283;49.020;8.644;2023-02-11T01:03:38;101336.91;;;6.96;53.38
40574;BME280;26283;49.020;8.644;2023-02-11T01:06:06;101332.56;;;6.95;53.37
40574;BME280;26283;49.020;8.644;2023-02-11T01:08:31;101337.06;;;6.94;53.35
40574;BME280;26283;49.020;8.644;2023-02-11T01:11:00;101324.66;;;6.93;53.37
40574;BME280;26283;49.020;8.644;2023-02-11T01:13:27;101317.44;;;6.94;53.40
40574;BME280;26283;49.020;8.644;2023-02-11T01:15:53;101308.75;;;6.92;53.39
40574;BME280;26283;49.020;8.644;2023-02-11T01:18:18;101313.12;;;6.93;53.35
40574;BME280;26283;49.020;8.644;2023-02-11T01:20:44;101306.91;;;6.92;53.45
40574;BME280;26283;49.020;8.644;2023-02-11T01:23:09;101303.38;;;6.92;53.42
40574;BME280;26283;49.020;8.644;2023-02-11T01:25:34;101301.69;;;6.91;53.38
40574;BME280;26283;49.020;8.644;2023-02-11T01:28:00;101300.00;;;6.90;53.44
40574;BME280;26283;49.020;8.644;2023-02-11T01:30:25;101302.69;;;6.90;53.41
40574;BME280;26283;49.020;8.644;2023-02-11T01:32:50;101308.03;;;6.90;53.42
40574;BME280;26283;49.020;8.644;2023-02-11T01:35:16;101301.84;;;6.89;53.42
40574;BME280;26283;49.020;8.644;2023-02-11T01:37:41;101310.00;;;6.87;53.45
40574;BME280;26283;49.020;8.644;2023-02-11T01:40:12;101310.84;;;6.88;53.47
40574;BME280;26283;49.020;8.644;2023-02-11T01:42:40;101310.00;;;6.87;53.48
40574;BME280;26283;49.020;8.644;2023-02-11T01:48:05;101296.75;;;6.86;53.58
40574;BME280;26283;49.020;8.644;2023-02-11T01:50:32;101298.59;;;6.85;53.35
40574;BME280;26283;49.020;8.644;2023-02-11T01:52:57;101302.25;;;6.84;53.50
40574;BME280;26283;49.020;8.644;2023-02-11T01:55:42;101295.06;;;6.85;53.52
40574;BME280;26283;49.020;8.644;2023-02-11T01:58:27;101288.88;;;6.84;53.49
40574;BME280;26283;49.020;8.644;2023-02-11T02:00:55;101288.16;;;6.82;53.55
40574;BME280;26283;49.020;8.644;2023-02-11T02:03:21;101287.31;;;6.82;53.55
40574;BME280;26283;49.020;8.644;2023-02-11T02:06:21;101289.16;;;6.81;53.62
40574;BME280;26283;49.020;8.644;2023-02-11T02:08:46;101281.09;;;6.81;53.59
40574;BME280;26283;49.020;8.644;2023-02-11T02:11:15;101283.78;;;6.81;53.56
40574;BME280;26283;49.020;8.644;2023-02-11T02:13:40;101286.59;;;6.80;53.55
40574;BME280;26283;49.020;8.644;2023-02-11T02:16:15;101292.09;;;6.78;53.56
40574;BME280;26283;49.020;8.644;2023-02-11T02:18:55;101285.06;;;6.77;53.70
40574;BME280;26283;49.020;8.644;2023-02-11T02:24:35;101279.69;;;6.77;53.74
40574;BME280;26283;49.020;8.644;2023-02-11T02:35:48;101266.59;;;6.74;53.85
40574;BME280;26283;49.020;8.644;2023-02-11T02:38:30;101261.38;;;6.73;53.81
40574;BME280;26283;49.020;8.644;2023-02-11T02:41:03;101266.72;;;6.73;53.82
40574;BME280;26283;49.020;8.644;2023-02-11T02:43:32;101258.84;;;6.71;53.87
40574;BME280;26283;49.020;8.644;2023-02-11T02:48:45;101239.41;;;6.69;54.12
40574;BME280;26283;49.020;8.644;2023-02-11T02:53:57;101238.56;;;6.69;54.19
40574;BME280;26283;49.020;8.644;2023-02-11T03:08:14;101224.47;;;6.67;54.22
40574;BME280;26283;49.020;8.644;2023-02-11T03:10:44;101227.28;;;6.65;54.26
40574;BME280;26283;49.020;8.644;2023-02-11T03:13:11;101229.81;;;6.67;54.08
40574;BME280;26283;49.020;8.644;2023-02-11T03:15:43;101226.44;;;6.65;54.16
40574;BME280;26283;49.020;8.644;2023-02-11T03:18:12;101230.81;;;6.66;54.19
40574;BME280;26283;49.020;8.644;2023-02-11T03:20:41;101231.78;;;6.65;54.20
40574;BME280;26283;49.020;8.644;2023-02-11T03:25:44;101213.88;;;6.65;54.21
40574;BME280;26283;49.020;8.644;2023-02-11T03:28:38;101213.03;;;6.65;54.21
40574;BME280;26283;49.020;8.644;2023-02-11T03:31:17;101206.97;;;6.63;54.43
40574;BME280;26283;49.020;8.644;2023-02-11T03:36:26;101208.81;;;6.62;54.27
40574;BME280;26283;49.020;8.644;2023-02-11T03:38:57;101201.62;;;6.63;54.37
40574;BME280;26283;49.020;8.644;2023-02-11T03:41:24;101197.25;;;6.62;54.28
40574;BME280;26283;49.020;8.644;2023-02-11T03:43:55;101183.00;;;6.61;54.41
40574;BME280;26283;49.020;8.644;2023-02-11T03:46:27;101188.38;;;6.61;54.51
40574;BME280;26283;49.020;8.644;2023-02-11T03:48:59;101195.56;;;6.61;54.58
40574;BME280;26283;49.020;8.644;2023-02-11T03:51:28;101193.03;;;6.59;54.48
40574;BME280;26283;49.020;8.644;2023-02-11T03:53:56;101208.12;;;6.60;54.51
40574;BME280;26283;49.020;8.644;2023-02-11T03:56:27;101215.31;;;6.60;54.47
40574;BME280;26283;49.020;8.644;2023-02-11T03:58:54;101225.19;;;6.59;54.43
40574;BME280;26283;49.020;8.644;2023-02-11T04:01:20;101228.69;;;6.60;54.50
40574;BME280;26283;49.020;8.644;2023-02-11T04:03:45;101232.38;;;6.59;54.51
40574;BME280;26283;49.020;8.644;2023-02-11T04:06:10;101227.00;;;6.59;54.49
40574;BME280;26283;49.020;8.644;2023-02-11T04:08:36;101227.00;;;6.59;54.52
40574;BME280;26283;49.020;8.644;2023-02-11T04:11:01;101223.47;;;6.58;54.55
40574;BME280;26283;49.020;8.644;2023-02-11T04:13:27;101219.13;;;6.57;54.61
40574;BME280;26283;49.020;8.644;2023-02-11T04:15:52;101219.13;;;6.57;54.61
40574;BME280;26283;49.020;8.644;2023-02-11T04:18:18;101215.44;;;6.58;54.64
40574;BME280;26283;49.020;8.644;2023-02-11T04:20:43;101212.91;;;6.57;54.67
40574;BME280;26283;49.020;8.644;2023-02-11T04:23:09;101215.59;;;6.57;54.69
40574;BME280;26283;49.020;8.644;2023-02-11T04:25:34;101209.38;;;6.56;54.74
40574;BME280;26283;49.020;8.644;2023-02-11T04:28:00;101209.53;;;6.54;54.71
40574;BME280;26283;49.020;8.644;2023-02-11T04:30:25;101212.06;;;6.56;54.70
40574;BME280;26283;49.020;8.644;2023-02-11T04:32:50;101207.69;;;6.55;54.77
40574;BME280;26283;49.020;8.644;2023-02-11T04:35:16;101203.31;;;6.54;54.76
40574;BME280;26283;49.020;8.644;2023-02-11T04:37:41;101210.37;;;6.55;54.80
40574;BME280;26283;49.020;8.644;2023-02-11T04:40:07;101210.37;;;6.55;54.82
40574;BME280;26283;49.020;8.644;2023-02-11T04:42:32;101213.19;;;6.53;54.81
40574;BME280;26283;49.020;8.644;2023-02-11T04:44:58;101214.88;;;6.54;54.87
40574;BME280;26283;49.020;8.644;2023-02-11T04:47:23;101208.69;;;6.54;54.82
40574;BME280;26283;49.020;8.644;2023-02-11T04:49:49;101204.31;;;6.53;54.84
40574;BME280;26283;49.020;8.644;2023-02-11T04:52:14;101209.69;;;6.53;54.82
40574;BME280;26283;49.020;8.644;2023-02-11T04:54:39;101205.03;;;6.55;54.83
40574;BME280;26283;49.020;8.644;2023-02-11T04:57:05;101193.59;;;6.53;54.83
40574;BME280;26283;49.020;8.644;2023-02-11T04:59:30;101192.75;;;6.52;54.85
40574;BME280;26283;49.020;8.644;2023-02-11T05:01:55;101191.78;;;6.53;54.86
40574;BME280;26283;49.020;8.644;2023-02-11T05:04:21;101185.56;;;6.53;54.97
40574;BME280;26283;49.020;8.644;2023-02-11T05:06:47;101178.53;;;6.52;54.98
40574;BME280;26283;49.020;8.644;2023-02-11T05:09:13;101166.97;;;6.51;55.00
40574;BME280;26283;49.020;8.644;2023-02-11T05:11:38;101147.38;;;6.51;55.00
40574;BME280;26283;49.020;8.644;2023-02-11T05:14:05;101137.50;;;6.51;55.09
40574;BME280;26283;49.020;8.644;2023-02-11T05:16:31;101143.84;;;6.50;55.05
40574;BME280;26283;49.020;8.644;2023-02-11T05:18:56;101139.31;;;6.51;55.07
40574;BME280;26283;49.020;8.644;2023-02-11T05:21:22;101163.44;;;6.51;56.10
40574;BME280;26283;49.020;8.644;2023-02-11T05:23:48;101155.97;;;6.54;56.19
40574;BME280;26283;49.020;8.644;2023-02-11T05:26:14;101154.81;;;6.57;56.12
40574;BME280;26283;49.020;8.644;2023-02-11T05:28:40;101150.31;;;6.58;56.08
40574;BME280;26283;49.020;8.644;2023-02-11T05:31:06;101152.84;;;6.59;56.08
40574;BME280;26283;49.020;8.644;2023-02-11T05:33:32;101146.78;;;6.57;56.10
40574;BME280;26283;49.020;8.644;2023-02-11T05:35:59;101152.00;;;6.59;56.12
40574;BME280;26283;49.020;8.644;2023-02-11T05:38:25;101157.34;;;6.59;56.17
40574;BME280;26283;49.020;8.644;2023-02-11T05:40:50;101185.00;;;6.59;56.22
40574;BME280;26283;49.020;8.644;2023-02-11T05:43:15;101200.38;;;6.57;56.26
40574;BME280;26283;49.020;8.644;2023-02-11T05:45:41;101195.84;;;6.58;56.30
40574;BME280;26283;49.020;8.644;2023-02-11T05:48:06;101193.16;;;6.58;56.33
40574;BME280;26283;49.020;8.644;2023-02-11T05:50:31;101190.50;;;6.58;56.36
40574;BME280;26283;49.020;8.644;2023-02-11T05:52:57;101193.16;;;6.58;56.39
40574;BME280;26283;49.020;8.644;2023-02-11T05:55:22;101197.69;;;6.57;56.44
40574;BME280;26283;49.020;8.644;2023-02-11T05:57:47;101194.16;;;6.57;56.47
40574;BME280;26283;49.020;8.644;2023-02-11T06:00:13;101189.66;;;6.57;56.51
40574;BME280;26283;49.020;8.644;2023-02-11T06:02:39;101197.69;;;6.57;56.53
40574;BME280;26283;49.020;8.644;2023-02-11T06:05:05;101193.31;;;6.56;56.56
40574;BME280;26283;49.020;8.644;2023-02-11T06:07:30;101186.13;;;6.57;56.59
40574;BME280;26283;49.020;8.644;2023-02-11T06:09:56;101189.78;;;6.56;56.62
40574;BME280;26283;49.020;8.644;2023-02-11T06:12:21;101182.59;;;6.56;56.65
40574;BME280;26283;49.020;8.644;2023-02-11T06:14:47;101182.59;;;6.56;56.67
40574;BME280;26283;49.020;8.644;2023-02-11T06:17:12;101179.91;;;6.56;56.70
40574;BME280;26283;49.020;8.644;2023-02-11T06:19:37;101185.28;;;6.56;56.72
40574;BME280;26283;49.020;8.644;2023-02-11T06:22:03;101195.16;;;6.56;56.73
40574;BME280;26283;49.020;8.644;2023-02-11T06:24:28;101184.28;;;6.57;56.75
40574;BME280;26283;49.020;8.644;2023-02-11T06:26:54;101179.91;;;6.56;56.77
40574;BME280;26283;49.020;8.644;2023-02-11T06:29:19;101190.63;;;6.56;56.78
40574;BME280;26283;49.020;8.644;2023-02-11T06:31:44;101194.31;;;6.55;56.80
40574;BME280;26283;49.020;8.644;2023-02-11T06:34:10;101192.31;;;6.57;56.82
40574;BME280;26283;49.020;8.644;2023-02-11T06:36:37;101189.78;;;6.56;56.84
40574;BME280;26283;49.020;8.644;2023-02-11T06:39:03;101190.63;;;6.56;56.84
40574;BME280;26283;49.020;8.644;2023-02-11T06:41:28;101180.75;;;6.57;56.86
40574;BME280;26283;49.020;8.644;2023-02-11T06:43:54;101174.56;;;6.56;56.87
40574;BME280;26283;49.020;8.644;2023-02-11T06:46:19;101182.59;;;6.56;56.89
40574;BME280;26283;49.020;8.644;2023-02-11T06:48:44;101183.44;;;6.57;56.88
40574;BME280;26283;49.020;8.644;2023-02-11T06:51:11;101186.13;;;6.57;56.89
40574;BME280;26283;49.020;8.644;2023-02-11T06:53:39;101184.28;;;6.57;56.90
40574;BME280;26283;49.020;8.644;2023-02-11T06:56:08;101183.44;;;6.57;56.92
40574;BME280;26283;49.020;8.644;2023-02-11T06:58:35;101195.16;;;6.56;56.92
40574;BME280;26283;49.020;8.644;2023-02-11T07:01:07;101200.38;;;6.57;56.94
40574;BME280;26283;49.020;8.644;2023-02-11T07:03:37;101199.50;;;6.57;56.95
40574;BME280;26283;49.020;8.644;2023-02-11T07:06:04;101195.16;;;6.56;56.98
40574;BME280;26283;49.020;8.644;2023-02-11T07:08:32;101196.00;;;6.56;56.99
40574;BME280;26283;49.020;8.644;2023-02-11T07:10:57;101198.69;;;6.56;57.00
40574;BME280;26283;49.020;8.644;2023-02-11T07:13:22;101202.34;;;6.55;57.00
40574;BME280;26283;49.020;8.644;2023-02-11T07:15:48;101209.38;;;6.56;57.00
40574;BME280;26283;49.020;8.644;2023-02-11T07:18:13;101213.75;;;6.57;57.01
40574;BME280;26283;49.020;8.644;2023-02-11T07:20:39;101218.28;;;6.57;57.02
40574;BME280;26283;49.020;8.644;2023-02-11T07:23:04;101219.13;;;6.57;57.04
40574;BME280;26283;49.020;8.644;2023-02-11T07:25:30;101217.44;;;6.56;57.05
40574;BME280;26283;49.020;8.644;2023-02-11T07:27:55;101224.47;;;6.57;57.05
40574;BME280;26283;49.020;8.644;2023-02-11T07:30:21;101227.16;;;6.57;57.07
40574;BME280;26283;49.020;8.644;2023-02-11T07:32:46;101236.87;;;6.58;57.08
40574;BME280;26283;49.020;8.644;2023-02-11T07:35:11;101235.19;;;6.57;57.09
40574;BME280;26283;49.020;8.644;2023-02-11T07:37:37;101233.50;;;6.56;57.10
40574;BME280;26283;49.020;8.644;2023-02-11T07:40:02;101230.81;;;6.56;57.11
40574;BME280;26283;49.020;8.644;2023-02-11T07:42:28;101226.31;;;6.57;57.12
40574;BME280;26283;49.020;8.644;2023-02-11T07:44:53;101232.50;;;6.57;57.11
40574;BME280;26283;49.020;8.644;2023-02-11T07:47:18;101225.31;;;6.58;57.12
40574;BME280;26283;49.020;8.644;2023-02-11T07:49:44;101228.84;;;6.58;57.11
40574;BME280;26283;49.020;8.644;2023-02-11T07:52:10;101228.84;;;6.58;57.12
40574;BME280;26283;49.020;8.644;2023-02-11T07:54:35;101230.69;;;6.58;57.13
40574;BME280;26283;49.020;8.644;2023-02-11T07:57:00;101224.47;;;6.57;57.14
40574;BME280;26283;49.020;8.644;2023-02-11T07:59:26;101227.16;;;6.57;57.15
40574;BME280;26283;49.020;8.644;2023-02-11T08:01:51;101214.59;;;6.58;57.16
40574;BME280;26283;49.020;8.644;2023-02-11T08:04:20;101215.44;;;6.58;57.18
40574;BME280;26283;49.020;8.644;2023-02-11T08:06:45;101213.75;;;6.57;57.17
40574;BME280;26283;49.020;8.644;2023-02-11T08:09:15;101215.44;;;6.58;57.18
40574;BME280;26283;49.020;8.644;2023-02-11T08:11:43;101213.75;;;6.57;57.17
40574;BME280;26283;49.020;8.644;2023-02-11T08:14:09;101211.94;;;6.58;57.18
40574;BME280;26283;49.020;8.644;2023-02-11T08:16:36;101208.41;;;6.57;57.20
40574;BME280;26283;49.020;8.644;2023-02-11T08:19:05;101206.56;;;6.58;57.21
40574;BME280;26283;49.020;8.644;2023-02-11T08:21:31;101201.22;;;6.58;57.21
40574;BME280;26283;49.020;8.644;2023-02-11T08:23:56;101198.53;;;6.58;57.21
40574;BME280;26283;49.020;8.644;2023-02-11T08:26:24;101204.72;;;6.58;57.21
40574;BME280;26283;49.020;8.644;2023-02-11T08:28:51;101203.88;;;6.58;57.22
40574;BME280;26283;49.020;8.644;2023-02-11T08:31:23;101204.72;;;6.58;57.22
40574;BME280;26283;49.020;8.644;2023-02-11T08:33:49;101204.72;;;6.58;57.23
40574;BME280;26283;49.020;8.644;2023-02-11T08:36:22;101210.94;;;6.59;57.24
40574;BME280;26283;49.020;8.644;2023-02-11T08:38:48;101210.09;;;6.58;57.25
40574;BME280;26283;49.020;8.644;2023-02-11T08:41:14;101210.94;;;6.59;57.24
40574;BME280;26283;49.020;8.644;2023-02-11T08:43:40;101212.78;;;6.58;57.25
40574;BME280;26283;49.020;8.644;2023-02-11T08:46:07;101199.37;;;6.58;57.26
40574;BME280;26283;49.020;8.644;2023-02-11T08:48:33;101205.56;;;6.59;57.26
40574;BME280;26283;49.020;8.644;2023-02-11T08:50:59;101204.72;;;6.58;57.26
40574;BME280;26283;49.020;8.644;2023-02-11T08:53:24;101203.03;;;6.57;57.25
40574;BME280;26283;49.020;8.644;2023-02-11T08:55:51;101209.94;;;6.60;57.25
40574;BME280;26283;49.020;8.644;2023-02-11T08:58:17;101207.28;;;6.60;57.24
40574;BME280;26283;49.020;8.644;2023-02-11T09:00:42;101208.12;;;6.60;57.25
40574;BME280;26283;49.020;8.644;2023-02-11T09:03:12;101213.47;;;6.60;57.25
40574;BME280;26283;49.020;8.644;2023-02-11T09:05:42;101206.28;;;6.61;57.25
40574;BME280;26283;49.020;8.644;2023-02-11T09:08:08;101208.25;;;6.59;57.25
40574;BME280;26283;49.020;8.644;2023-02-11T09:10:33;101195.56;;;6.61;57.25
40574;BME280;26283;49.020;8.644;2023-02-11T09:12:59;101188.50;;;6.60;57.25
40574;BME280;26283;49.020;8.644;2023-02-11T09:15:25;101177.66;;;6.61;57.25
40574;BME280;26283;49.020;8.644;2023-02-11T09:17:51;101181.31;;;6.60;57.26
40574;BME280;26283;49.020;8.644;2023-02-11T09:20:16;101178.66;;;6.60;57.27
40574;BME280;26283;49.020;8.644;2023-02-11T09:22:42;101192.87;;;6.61;57.29
40574;BME280;26283;49.020;8.644;2023-02-11T09:25:07;101197.41;;;6.60;57.31
40574;BME280;26283;49.020;8.644;2023-02-11T09:27:32;101200.06;;;6.60;57.31
40574;BME280;26283;49.020;8.644;2023-02-11T09:29:58;101202.75;;;6.60;57.31
40574;BME280;26283;49.020;8.644;2023-02-11T09:32:23;101202.75;;;6.60;57.33
40574;BME280;26283;49.020;8.644;2023-02-11T09:34:49;101205.28;;;6.62;57.33
40574;BME280;26283;49.020;8.644;2023-02-11T09:37:14;101195.41;;;6.62;57.33
40574;BME280;26283;49.020;8.644;2023-02-11T09:39:39;101192.75;;;6.62;57.33
40574;BME280;26283;49.020;8.644;2023-02-11T09:42:07;101199.09;;;6.61;57.34
40574;BME280;26283;49.020;8.644;2023-02-11T09:44:35;101213.19;;;6.63;57.36
40574;BME280;26283;49.020;8.644;2023-02-11T09:47:16;101217.56;;;6.64;57.35
40574;BME280;26283;49.020;8.644;2023-02-11T09:49:49;101218.41;;;6.65;57.35
40574;BME280;26283;49.020;8.644;2023-02-11T09:52:47;101217.56;;;6.64;57.33
40574;BME280;26283;49.020;8.644;2023-02-11T09:55:20;101218.41;;;6.65;57.35
40574;BME280;26283;49.020;8.644;2023-02-11T09:57:47;101219.25;;;6.65;57.31
40574;BME280;26283;49.020;8.644;2023-02-11T10:00:20;101233.47;;;6.66;57.33
40574;BME280;26283;49.020;8.644;2023-02-11T10:03:00;101240.53;;;6.67;57.34
40574;BME280;26283;49.020;8.644;2023-02-11T10:08:11;101244.06;;;6.67;57.34
40574;BME280;26283;49.020;8.644;2023-02-11T10:10:52;101246.75;;;6.67;57.34
40574;BME280;26283;49.020;8.644;2023-02-11T10:13:27;101248.44;;;6.68;57.34
40574;BME280;26283;49.020;8.644;2023-02-11T10:16:05;101240.25;;;6.70;57.33
40574;BME280;26283;49.020;8.644;2023-02-11T10:23:51;101237.41;;;6.71;57.31
40574;BME280;26283;49.020;8.644;2023-02-11T10:26:18;101231.91;;;6.73;57.32
40574;BME280;26283;49.020;8.644;2023-02-11T10:28:50;101236.25;;;6.74;57.31
40574;BME280;26283;49.020;8.644;2023-02-11T10:31:24;101231.75;;;6.74;57.30
40574;BME280;26283;49.020;8.644;2023-02-11T10:34:09;101230.75;;;6.75;57.28
40574;BME280;26283;49.020;8.644;2023-02-11T10:36:40;101229.78;;;6.76;57.29
40574;BME280;26283;49.020;8.644;2023-02-11T10:39:19;101232.44;;;6.76;57.25
40574;BME280;26283;49.020;8.644;2023-02-11T10:44:29;101229.47;;;6.79;57.23
40574;BME280;26283;49.020;8.644;2023-02-11T10:46:56;101225.81;;;6.80;57.23
40574;BME280;26283;49.020;8.644;2023-02-11T10:49:41;101228.34;;;6.82;57.20
40574;BME280;26283;49.020;8.644;2023-02-11T10:52:16;101218.47;;;6.82;57.19
40574;BME280;26283;49.020;8.644;2023-02-11T10:55:08;101204.09;;;6.83;57.16
40574;BME280;26283;49.020;8.644;2023-02-11T11:02:42;101198.28;;;6.88;57.10
40574;BME280;26283;49.020;8.644;2023-02-11T11:05:17;101193.06;;;6.86;57.10
40574;BME280;26283;49.020;8.644;2023-02-11T11:07:59;101192.78;;;6.90;57.08
40574;BME280;26283;49.020;8.644;2023-02-11T11:13:31;101185.44;;;6.92;57.04
40574;BME280;26283;49.020;8.644;2023-02-11T11:18:44;101214.59;;;6.95;56.99
40574;BME280;26283;49.020;8.644;2023-02-11T11:21:24;101213.63;;;6.96;56.98
40574;BME280;26283;49.020;8.644;2023-02-11T11:23:55;101208.94;;;6.98;56.97
40574;BME280;26283;49.020;8.644;2023-02-11T11:26:22;101206.28;;;6.98;56.93
40574;BME280;26283;49.020;8.644;2023-02-11T11:28:50;101206.97;;;7.00;56.92
40574;BME280;26283;49.020;8.644;2023-02-11T11:31:19;101205.97;;;7.01;56.90
40574;BME280;26283;49.020;8.644;2023-02-11T11:33:46;101204.00;;;7.03;56.86
40574;BME280;26283;49.020;8.644;2023-02-11T11:36:30;101201.16;;;7.04;56.84
40574;BME280;26283;49.020;8.644;2023-02-11T11:38:59;101195.81;;;7.04;56.81
40574;BME280;26283;49.020;8.644;2023-02-11T11:41:28;101204.41;;;7.08;56.76
40574;BME280;26283;49.020;8.644;2023-02-11T11:46:41;101197.91;;;7.10;56.73
40574;BME280;26283;49.020;8.644;2023-02-11T11:51:46;101195.06;;;7.12;56.68
40574;BME280;26283;49.020;8.644;2023-02-11T11:54:17;101190.41;;;7.14;56.66
40574;BME280;26283;49.020;8.644;2023-02-11T11:56:59;101185.87;;;7.14;56.65
40574;BME280;26283;49.020;8.644;2023-02-11T11:59:27;101194.75;;;7.15;56.60
40574;BME280;26283;49.020;8.644;2023-02-11T12:10:16;101184.12;;;7.23;56.48
40574;BME280;26283;49.020;8.644;2023-02-11T12:12:57;101181.44;;;7.23;56.47
40574;BME280;26283;49.020;8.644;2023-02-11T12:15:35;101183.97;;;7.25;56.44
40574;BME280;26283;49.020;8.644;2023-02-11T12:19:02;101178.47;;;7.26;56.41
40574;BME280;26283;49.020;8.644;2023-02-11T12:22:09;101178.16;;;7.29;56.39
40574;BME280;26283;49.020;8.644;2023-02-11T12:28:05;101188.59;;;7.32;56.33
40574;BME280;26283;49.020;8.644;2023-02-11T12:30:34;101179.72;;;7.32;56.33
40574;BME280;26283;49.020;8.644;2023-02-11T12:33:21;101181.25;;;7.34;56.29
40574;BME280;26283;49.020;8.644;2023-02-11T12:36:19;101189.16;;;7.36;56.26
40574;BME280;26283;49.020;8.644;2023-02-11T12:41:50;101174.56;;;7.38;56.24
40574;BME280;26283;49.020;8.644;2023-02-11T12:50:24;101170.28;;;7.45;56.14
40574;BME280;26283;49.020;8.644;2023-02-11T12:55:34;101167.31;;;7.48;56.11
40574;BME280;26283;49.020;8.644;2023-02-11T12:58:02;101165.31;;;7.50;56.10
40574;BME280;26283;49.020;8.644;2023-02-11T13:03:12;101168.41;;;7.55;56.06
40574;BME280;26283;49.020;8.644;2023-02-11T13:05:56;101163.72;;;7.57;56.03
40574;BME280;26283;49.020;8.644;2023-02-11T13:08:32;101155.34;;;7.61;56.00
40574;BME280;26283;49.020;8.644;2023-02-11T13:11:02;101153.50;;;7.61;55.98
40574;BME280;26283;49.020;8.644;2023-02-11T13:19:02;101146.69;;;7.67;55.91
40574;BME280;26283;49.020;8.644;2023-02-11T13:24:40;101154.44;;;7.70;55.85
40574;BME280;26283;49.020;8.644;2023-02-11T13:27:23;101147.06;;;7.72;55.80
40574;BME280;26283;49.020;8.644;2023-02-11T13:33:04;101137.72;;;7.76;55.74
40574;BME280;26283;49.020;8.644;2023-02-11T13:38:29;101147.12;;;7.80;55.74
40574;BME280;26283;49.020;8.644;2023-02-11T13:41:18;101139.91;;;7.80;55.68
40574;BME280;26283;49.020;8.644;2023-02-11T13:43:59;101138.75;;;7.83;55.66
40574;BME280;26283;49.020;8.644;2023-02-11T13:46:26;101131.72;;;7.82;55.63
40574;BME280;26283;49.020;8.644;2023-02-11T13:48:53;101135.09;;;7.84;55.64
40574;BME280;26283;49.020;8.644;2023-02-11T13:51:45;101134.09;;;7.85;55.64
40574;BME280;26283;49.020;8.644;2023-02-11T13:54:21;101136.62;;;7.86;55.63
40574;BME280;26283;49.020;8.644;2023-02-11T13:59:53;101138.16;;;7.89;55.59
40574;BME280;26283;49.020;8.644;2023-02-11T14:02:21;101138.16;;;7.89;55.59
40574;BME280;26283;49.020;8.644;2023-02-11T14:11:00;101141.91;;;7.96;55.53
40574;BME280;26283;49.020;8.644;2023-02-11T14:13:32;101146.28;;;7.97;55.49
40574;BME280;26283;49.020;8.644;2023-02-11T14:16:13;101148.81;;;7.99;55.53
40574;BME280;26283;49.020;8.644;2023-02-11T14:21:31;101132.37;;;8.02;55.54
40574;BME280;26283;49.020;8.644;2023-02-11T14:29:14;101121.69;;;8.10;55.43
40574;BME280;26283;49.020;8.644;2023-02-11T14:37:59;101121.91;;;8.16;55.41
40574;BME280;26283;49.020;8.644;2023-02-11T14:40:32;101132.34;;;8.19;55.34
40574;BME280;26283;49.020;8.644;2023-02-11T14:43:23;101133.03;;;8.21;55.35
40574;BME280;26283;49.020;8.644;2023-02-11T14:45:52;101134.72;;;8.22;55.33
40574;BME280;26283;49.020;8.644;2023-02-11T14:48:19;101128.31;;;8.23;55.31
40574;BME280;26283;49.020;8.644;2023-02-11T14:50:57;101132.69;;;8.24;55.31
40574;BME280;26283;49.020;8.644;2023-02-11T14:53:27;101141.44;;;8.26;55.29
40574;BME280;26283;49.020;8.644;2023-02-11T14:55:54;101135.75;;;8.30;55.31
40574;BME280;26283;49.020;8.644;2023-02-11T14:58:25;101137.44;;;8.31;55.26
40574;BME280;26283;49.020;8.644;2023-02-11T15:01:05;101144.50;;;8.32;55.24
40574;BME280;26283;49.020;8.644;2023-02-11T15:03:48;101146.22;;;8.33;55.23
40574;BME280;26283;49.020;8.644;2023-02-11T15:06:36;101152.28;;;8.35;55.23
40574;BME280;26283;49.020;8.644;2023-02-11T15:09:21;101147.75;;;8.35;55.20
40574;BME280;26283;49.020;8.644;2023-02-11T15:11:51;101152.97;;;8.37;55.17
40574;BME280;26283;49.020;8.644;2023-02-11T15:14:26;101154.66;;;8.38;55.20
40574;BME280;26283;49.020;8.644;2023-02-11T15:16:54;101156.34;;;8.39;55.27
40574;BME280;26283;49.020;8.644;2023-02-11T15:19:40;101154.66;;;8.38;55.24